Asterion — FICK — position and weather

sailwx.info

Track history (hours):
 
Tides and Currents Weather Stations Pressure Air Temp Water Temp Dewpoint Dewpoint Depression Visibility Wind Speed Wind Dir Waves Ship Positions

Asterion

Last reported at 2016-Jul-21 09:29 UTC. Time now 2016-Jul-26 21:51 UTC.
Position N 48°55' E 002°13'.

Length 184 m; draft 10.9 m.

Type: Tanker. MMSI: 226000000.

Date/timePositionNaut miles runAvg speedWind from/ knotsBaromVisibWave heightAir tempDewpointWater temp
2016-Jul-21 09:29N 48°55' E 002°13'0 0.3
2016-Jul-21 08:31N 48°55' E 002°13'0 0.2
2016-Jul-21 07:29N 48°55' E 002°13'  
2016-Jul-17 12:33N 29°47' W 090°01'10 9.7
2016-Jul-17 11:33N 29°55' W 089°56'9 8.7
2016-Jul-17 10:33N 29°54' W 090°06'9 9.5
2016-Jul-17 09:33N 29°58' W 090°16'18 0.6
2016-Jul-16 04:31N 30°03' W 090°36'8 8.6
2016-Jul-16 03:33N 29°60' W 090°27'9 8.5
2016-Jul-16 02:33N 29°58' W 090°17'8 7.8
2016-Jul-16 01:33N 29°56' W 090°08'7 6.8
2016-Jul-16 00:33N 29°57' W 090°01'7 6.8
2016-Jul-15 23:34N 29°52' W 089°55'5 1.5
2016-Jul-15 20:17N 29°50' W 090°00'0 0.0
2016-Jul-15 10:32N 29°50' W 090°00'0 0.0
2016-Jul-15 09:32N 29°50' W 090°00'0 0.0
2016-Jul-15 08:33N 29°50' W 090°00'0 0.0
2016-Jul-15 07:33N 29°50' W 090°00'0 0.0
2016-Jul-15 06:33N 29°50' W 090°00'2 1.8
2016-Jul-15 05:33N 29°48' W 090°00'1110.8
2016-Jul-15 04:32N 29°38' W 089°55'185 7.3
2016-Jul-14 03:17N 28°42' W 093°18'1613.1
2016-Jul-14 02:06N 28°54' W 093°28'2012.6
2016-Jul-14 00:33N 29°11' W 093°40'1813.0
2016-Jul-13 23:10N 29°29' W 093°40'813.1
2016-Jul-13 22:32N 29°35' W 093°47'1110.6
2016-Jul-13 21:31N 29°44' W 093°52'8 7.9
2016-Jul-13 20:32N 29°50' W 093°58'0 0.3
2016-Jul-13 19:16N 29°51' W 093°58'0 0.0
2016-Jul-13 00:28N 29°51' W 093°58'0 0.0
2016-Jul-12 23:33N 29°51' W 093°58'0 0.0
2016-Jul-12 22:29N 29°51' W 093°58'0 0.0
2016-Jul-12 21:33N 29°51' W 093°58'0 0.0
2016-Jul-12 04:33N 29°50' W 093°58'6 5.8
2016-Jul-12 03:27N 29°45' W 093°54'  
Track history (hours):
 
Tides and Currents Weather Stations Pressure Air Temp Water Temp Dewpoint Dewpoint Depression Visibility Wind Speed Wind Dir Waves Ship Positions

Asterion

Last reported at 2016-Jul-21 09:29 UTC. Time now 2016-Jul-26 21:51 UTC.
Position N 48°55' E 002°13'.

Length 184 m; draft 10.9 m.

Type: Tanker. MMSI: 226000000.

Date/timePositionNaut miles runAvg speedWind from/ knotsBaromVisibWave heightAir tempDewpointWater temp
2016-Jul-21 09:29N 48°55' E 002°13'0 0.3
2016-Jul-21 08:31N 48°55' E 002°13'0 0.2
2016-Jul-21 07:29N 48°55' E 002°13'  
2016-Jul-17 12:33N 29°47' W 090°01'10 9.7
2016-Jul-17 11:33N 29°55' W 089°56'9 8.7
2016-Jul-17 10:33N 29°54' W 090°06'9 9.5
2016-Jul-17 09:33N 29°58' W 090°16'18 0.6
2016-Jul-16 04:31N 30°03' W 090°36'8 8.6
2016-Jul-16 03:33N 29°60' W 090°27'9 8.5
2016-Jul-16 02:33N 29°58' W 090°17'8 7.8
2016-Jul-16 01:33N 29°56' W 090°08'7 6.8
2016-Jul-16 00:33N 29°57' W 090°01'7 6.8
2016-Jul-15 23:34N 29°52' W 089°55'5 1.5
2016-Jul-15 20:17N 29°50' W 090°00'0 0.0
2016-Jul-15 10:32N 29°50' W 090°00'0 0.0
2016-Jul-15 09:32N 29°50' W 090°00'0 0.0
2016-Jul-15 08:33N 29°50' W 090°00'0 0.0
2016-Jul-15 07:33N 29°50' W 090°00'0 0.0
2016-Jul-15 06:33N 29°50' W 090°00'2 1.8
2016-Jul-15 05:33N 29°48' W 090°00'1110.8
2016-Jul-15 04:32N 29°38' W 089°55'185 7.3
2016-Jul-14 03:17N 28°42' W 093°18'1613.1
2016-Jul-14 02:06N 28°54' W 093°28'2012.6
2016-Jul-14 00:33N 29°11' W 093°40'1813.0
2016-Jul-13 23:10N 29°29' W 093°40'813.1
2016-Jul-13 22:32N 29°35' W 093°47'1110.6
2016-Jul-13 21:31N 29°44' W 093°52'8 7.9
2016-Jul-13 20:32N 29°50' W 093°58'0 0.3
2016-Jul-13 19:16N 29°51' W 093°58'0 0.0
2016-Jul-13 00:28N 29°51' W 093°58'0 0.0
2016-Jul-12 23:33N 29°51' W 093°58'0 0.0
2016-Jul-12 22:29N 29°51' W 093°58'0 0.0
2016-Jul-12 21:33N 29°51' W 093°58'0 0.0
2016-Jul-12 04:33N 29°50' W 093°58'6 5.8
2016-Jul-12 03:27N 29°45' W 093°54'  

Dump ship's entire track history